sensor_id;sensor_type;location;lat;lon;timestamp;P1;durP1;ratioP1;P2;durP2;ratioP2
609;SDS011;292;48.800;9.216;2024-01-15T00:01:14;28.80;;;8.30;;
609;SDS011;292;48.800;9.216;2024-01-15T00:03:41;26.13;;;8.45;;
609;SDS011;292;48.800;9.216;2024-01-15T00:06:08;29.05;;;8.38;;
609;SDS011;292;48.800;9.216;2024-01-15T00:08:36;31.00;;;8.82;;
609;SDS011;292;48.800;9.216;2024-01-15T00:11:05;25.20;;;7.88;;
609;SDS011;292;48.800;9.216;2024-01-15T00:13:32;29.10;;;8.32;;
609;SDS011;292;48.800;9.216;2024-01-15T00:15:59;26.67;;;7.40;;
609;SDS011;292;48.800;9.216;2024-01-15T00:18:26;28.52;;;8.65;;
609;SDS011;292;48.800;9.216;2024-01-15T00:20:53;31.75;;;10.35;;
609;SDS011;292;48.800;9.216;2024-01-15T00:23:20;34.58;;;9.93;;
609;SDS011;292;48.800;9.216;2024-01-15T00:25:47;26.67;;;8.75;;
609;SDS011;292;48.800;9.216;2024-01-15T00:28:15;32.65;;;9.25;;
609;SDS011;292;48.800;9.216;2024-01-15T00:30:42;29.33;;;9.15;;
609;SDS011;292;48.800;9.216;2024-01-15T00:33:09;31.05;;;9.10;;
609;SDS011;292;48.800;9.216;2024-01-15T00:35:37;36.83;;;9.90;;
609;SDS011;292;48.800;9.216;2024-01-15T00:38:04;30.00;;;9.60;;
609;SDS011;292;48.800;9.216;2024-01-15T00:40:32;28.75;;;8.50;;
609;SDS011;292;48.800;9.216;2024-01-15T00:42:59;29.00;;;9.00;;
609;SDS011;292;48.800;9.216;2024-01-15T00:45:28;30.55;;;9.48;;
609;SDS011;292;48.800;9.216;2024-01-15T00:47:55;26.75;;;8.40;;
609;SDS011;292;48.800;9.216;2024-01-15T00:50:24;25.20;;;9.15;;
609;SDS011;292;48.800;9.216;2024-01-15T00:52:51;26.13;;;8.80;;
609;SDS011;292;48.800;9.216;2024-01-15T00:55:31;23.98;;;8.25;;
609;SDS011;292;48.800;9.216;2024-01-15T00:57:58;25.30;;;8.63;;
609;SDS011;292;48.800;9.216;2024-01-15T01:00:25;22.15;;;8.23;;
609;SDS011;292;48.800;9.216;2024-01-15T01:02:54;27.02;;;9.57;;
609;SDS011;292;48.800;9.216;2024-01-15T01:05:21;27.65;;;8.93;;
609;SDS011;292;48.800;9.216;2024-01-15T01:07:48;27.38;;;9.60;;
609;SDS011;292;48.800;9.216;2024-01-15T01:10:15;27.30;;;8.13;;
609;SDS011;292;48.800;9.216;2024-01-15T01:12:42;27.80;;;8.15;;
609;SDS011;292;48.800;9.216;2024-01-15T01:15:09;25.52;;;7.95;;
609;SDS011;292;48.800;9.216;2024-01-15T01:17:36;33.05;;;8.80;;
609;SDS011;292;48.800;9.216;2024-01-15T01:20:05;29.90;;;9.07;;
609;SDS011;292;48.800;9.216;2024-01-15T01:22:34;27.42;;;8.43;;
609;SDS011;292;48.800;9.216;2024-01-15T01:25:01;32.22;;;10.05;;
609;SDS011;292;48.800;9.216;2024-01-15T01:27:28;32.42;;;9.32;;
609;SDS011;292;48.800;9.216;2024-01-15T01:29:55;30.38;;;8.55;;
609;SDS011;292;48.800;9.216;2024-01-15T01:32:22;26.40;;;8.80;;
609;SDS011;292;48.800;9.216;2024-01-15T01:34:49;29.75;;;9.18;;
609;SDS011;292;48.800;9.216;2024-01-15T01:37:18;26.88;;;8.30;;
609;SDS011;292;48.800;9.216;2024-01-15T01:39:45;26.80;;;7.78;;
609;SDS011;292;48.800;9.216;2024-01-15T01:42:12;23.65;;;7.35;;
609;SDS011;292;48.800;9.216;2024-01-15T01:44:39;23.13;;;7.90;;
609;SDS011;292;48.800;9.216;2024-01-15T01:47:06;24.23;;;7.38;;
609;SDS011;292;48.800;9.216;2024-01-15T01:49:34;28.63;;;8.02;;
609;SDS011;292;48.800;9.216;2024-01-15T01:52:01;23.52;;;7.82;;
609;SDS011;292;48.800;9.216;2024-01-15T01:54:33;23.13;;;8.05;;
609;SDS011;292;48.800;9.216;2024-01-15T01:57:01;30.13;;;8.55;;
609;SDS011;292;48.800;9.216;2024-01-15T01:59:30;27.85;;;8.05;;
609;SDS011;292;48.800;9.216;2024-01-15T02:01:58;30.45;;;8.77;;
609;SDS011;292;48.800;9.216;2024-01-15T02:04:29;20.70;;;7.10;;
609;SDS011;292;48.800;9.216;2024-01-15T02:06:57;27.13;;;8.88;;
609;SDS011;292;48.800;9.216;2024-01-15T02:09:25;23.77;;;7.93;;
609;SDS011;292;48.800;9.216;2024-01-15T02:11:54;31.45;;;8.88;;
609;SDS011;292;48.800;9.216;2024-01-15T02:14:21;27.00;;;7.85;;
609;SDS011;292;48.800;9.216;2024-01-15T02:16:48;24.35;;;8.57;;
609;SDS011;292;48.800;9.216;2024-01-15T02:19:16;25.17;;;7.93;;
609;SDS011;292;48.800;9.216;2024-01-15T02:21:43;34.28;;;8.55;;
609;SDS011;292;48.800;9.216;2024-01-15T02:24:14;24.80;;;7.93;;
609;SDS011;292;48.800;9.216;2024-01-15T02:26:41;25.25;;;8.38;;
609;SDS011;292;48.800;9.216;2024-01-15T02:29:13;23.52;;;7.40;;
609;SDS011;292;48.800;9.216;2024-01-15T02:31:50;23.70;;;7.95;;
609;SDS011;292;48.800;9.216;2024-01-15T02:34:17;27.25;;;8.20;;
609;SDS011;292;48.800;9.216;2024-01-15T02:36:44;26.48;;;8.00;;
609;SDS011;292;48.800;9.216;2024-01-15T02:39:13;26.92;;;8.07;;
609;SDS011;292;48.800;9.216;2024-01-15T02:41:40;24.42;;;7.80;;
609;SDS011;292;48.800;9.216;2024-01-15T02:44:09;25.55;;;8.52;;
609;SDS011;292;48.800;9.216;2024-01-15T02:46:35;25.27;;;8.02;;
609;SDS011;292;48.800;9.216;2024-01-15T02:49:03;21.40;;;6.28;;
609;SDS011;292;48.800;9.216;2024-01-15T02:51:29;29.98;;;9.07;;
609;SDS011;292;48.800;9.216;2024-01-15T02:53:56;22.60;;;7.57;;
609;SDS011;292;48.800;9.216;2024-01-15T02:56:25;25.85;;;8.75;;
609;SDS011;292;48.800;9.216;2024-01-15T02:58:52;26.27;;;8.48;;
609;SDS011;292;48.800;9.216;2024-01-15T03:01:19;22.40;;;8.20;;
609;SDS011;292;48.800;9.216;2024-01-15T03:03:47;20.85;;;7.50;;
609;SDS011;292;48.800;9.216;2024-01-15T03:06:14;24.40;;;7.05;;
609;SDS011;292;48.800;9.216;2024-01-15T03:08:41;28.80;;;9.35;;
609;SDS011;292;48.800;9.216;2024-01-15T03:11:08;20.65;;;6.88;;
609;SDS011;292;48.800;9.216;2024-01-15T03:13:36;25.80;;;7.85;;
609;SDS011;292;48.800;9.216;2024-01-15T03:16:04;25.17;;;7.95;;
609;SDS011;292;48.800;9.216;2024-01-15T03:18:31;23.63;;;7.25;;
609;SDS011;292;48.800;9.216;2024-01-15T03:20:58;26.08;;;8.00;;
609;SDS011;292;48.800;9.216;2024-01-15T03:23:26;26.20;;;7.75;;
609;SDS011;292;48.800;9.216;2024-01-15T03:25:53;32.15;;;9.27;;
609;SDS011;292;48.800;9.216;2024-01-15T03:28:20;23.65;;;7.22;;
609;SDS011;292;48.800;9.216;2024-01-15T03:30:48;29.73;;;9.13;;
609;SDS011;292;48.800;9.216;2024-01-15T03:33:15;30.13;;;8.20;;
609;SDS011;292;48.800;9.216;2024-01-15T03:35:42;21.65;;;7.20;;
609;SDS011;292;48.800;9.216;2024-01-15T03:38:09;27.17;;;7.78;;
609;SDS011;292;48.800;9.216;2024-01-15T03:40:36;19.08;;;6.53;;
609;SDS011;292;48.800;9.216;2024-01-15T03:43:03;23.20;;;8.02;;
609;SDS011;292;48.800;9.216;2024-01-15T03:45:30;26.42;;;7.93;;
609;SDS011;292;48.800;9.216;2024-01-15T03:47:59;28.15;;;6.38;;
609;SDS011;292;48.800;9.216;2024-01-15T03:50:26;21.30;;;7.03;;
609;SDS011;292;48.800;9.216;2024-01-15T03:52:53;21.88;;;7.05;;
609;SDS011;292;48.800;9.216;2024-01-15T03:55:20;21.05;;;7.30;;
609;SDS011;292;48.800;9.216;2024-01-15T03:57:47;24.17;;;7.30;;
609;SDS011;292;48.800;9.216;2024-01-15T04:00:14;20.23;;;7.22;;
609;SDS011;292;48.800;9.216;2024-01-15T04:02:42;26.73;;;7.25;;
609;SDS011;292;48.800;9.216;2024-01-15T04:05:11;30.25;;;7.80;;
609;SDS011;292;48.800;9.216;2024-01-15T04:07:38;22.20;;;7.68;;
609;SDS011;292;48.800;9.216;2024-01-15T04:10:05;17.77;;;6.45;;
609;SDS011;292;48.800;9.216;2024-01-15T04:12:33;23.55;;;6.90;;
609;SDS011;292;48.800;9.216;2024-01-15T04:15:00;18.67;;;6.63;;
609;SDS011;292;48.800;9.216;2024-01-15T04:17:26;20.17;;;6.40;;
609;SDS011;292;48.800;9.216;2024-01-15T04:19:54;16.52;;;5.90;;
609;SDS011;292;48.800;9.216;2024-01-15T04:22:23;23.38;;;6.57;;
609;SDS011;292;48.800;9.216;2024-01-15T04:24:49;22.73;;;6.57;;
609;SDS011;292;48.800;9.216;2024-01-15T04:27:18;20.25;;;6.43;;
609;SDS011;292;48.800;9.216;2024-01-15T04:29:47;22.95;;;6.50;;
609;SDS011;292;48.800;9.216;2024-01-15T04:32:14;19.00;;;5.35;;
609;SDS011;292;48.800;9.216;2024-01-15T04:34:43;20.60;;;6.70;;
609;SDS011;292;48.800;9.216;2024-01-15T04:37:10;21.60;;;6.15;;
609;SDS011;292;48.800;9.216;2024-01-15T04:39:39;18.42;;;5.90;;
609;SDS011;292;48.800;9.216;2024-01-15T04:42:06;18.42;;;6.05;;
609;SDS011;292;48.800;9.216;2024-01-15T04:44:33;14.45;;;6.03;;
609;SDS011;292;48.800;9.216;2024-01-15T04:47:00;18.48;;;6.07;;
609;SDS011;292;48.800;9.216;2024-01-15T04:49:27;18.30;;;5.15;;
609;SDS011;292;48.800;9.216;2024-01-15T04:51:55;24.48;;;8.02;;
609;SDS011;292;48.800;9.216;2024-01-15T04:54:22;25.58;;;6.97;;
609;SDS011;292;48.800;9.216;2024-01-15T04:56:53;22.50;;;6.53;;
609;SDS011;292;48.800;9.216;2024-01-15T04:59:20;21.63;;;7.10;;
609;SDS011;292;48.800;9.216;2024-01-15T05:01:48;36.30;;;9.45;;
609;SDS011;292;48.800;9.216;2024-01-15T05:04:15;25.02;;;6.95;;
609;SDS011;292;48.800;9.216;2024-01-15T05:06:42;17.25;;;6.80;;
609;SDS011;292;48.800;9.216;2024-01-15T05:09:09;19.65;;;6.40;;
609;SDS011;292;48.800;9.216;2024-01-15T05:11:37;29.13;;;7.68;;
609;SDS011;292;48.800;9.216;2024-01-15T05:14:05;20.00;;;7.13;;
609;SDS011;292;48.800;9.216;2024-01-15T05:16:33;20.27;;;6.63;;
609;SDS011;292;48.800;9.216;2024-01-15T05:19:00;20.98;;;6.75;;
609;SDS011;292;48.800;9.216;2024-01-15T05:21:27;22.35;;;6.72;;
609;SDS011;292;48.800;9.216;2024-01-15T05:23:54;20.33;;;6.90;;
609;SDS011;292;48.800;9.216;2024-01-15T05:26:21;21.20;;;6.50;;
609;SDS011;292;48.800;9.216;2024-01-15T05:28:48;24.13;;;7.25;;
609;SDS011;292;48.800;9.216;2024-01-15T05:31:16;22.38;;;7.65;;
609;SDS011;292;48.800;9.216;2024-01-15T05:33:43;21.08;;;6.45;;
609;SDS011;292;48.800;9.216;2024-01-15T05:36:11;18.08;;;6.68;;
609;SDS011;292;48.800;9.216;2024-01-15T05:38:38;21.73;;;7.32;;
609;SDS011;292;48.800;9.216;2024-01-15T05:41:05;21.98;;;7.43;;
609;SDS011;292;48.800;9.216;2024-01-15T05:43:32;18.70;;;6.82;;
609;SDS011;292;48.800;9.216;2024-01-15T05:45:59;18.30;;;6.25;;
609;SDS011;292;48.800;9.216;2024-01-15T05:48:28;23.23;;;7.35;;
609;SDS011;292;48.800;9.216;2024-01-15T05:50:55;20.70;;;6.80;;
609;SDS011;292;48.800;9.216;2024-01-15T05:53:22;21.17;;;7.03;;
609;SDS011;292;48.800;9.216;2024-01-15T05:55:49;22.23;;;7.40;;
609;SDS011;292;48.800;9.216;2024-01-15T05:58:16;19.30;;;6.90;;
609;SDS011;292;48.800;9.216;2024-01-15T06:00:43;24.48;;;7.85;;
609;SDS011;292;48.800;9.216;2024-01-15T06:03:11;23.02;;;7.55;;
609;SDS011;292;48.800;9.216;2024-01-15T06:05:39;21.80;;;7.53;;
609;SDS011;292;48.800;9.216;2024-01-15T06:08:06;18.50;;;7.20;;
609;SDS011;292;48.800;9.216;2024-01-15T06:10:34;27.73;;;7.90;;
609;SDS011;292;48.800;9.216;2024-01-15T06:13:01;23.45;;;7.20;;
609;SDS011;292;48.800;9.216;2024-01-15T06:15:28;22.98;;;7.75;;
609;SDS011;292;48.800;9.216;2024-01-15T06:17:55;23.50;;;8.60;;
609;SDS011;292;48.800;9.216;2024-01-15T06:20:22;15.68;;;6.15;;
609;SDS011;292;48.800;9.216;2024-01-15T06:22:50;25.92;;;7.30;;
609;SDS011;292;48.800;9.216;2024-01-15T06:25:17;24.35;;;6.82;;
609;SDS011;292;48.800;9.216;2024-01-15T06:27:44;17.45;;;6.35;;
609;SDS011;292;48.800;9.216;2024-01-15T06:30:12;24.30;;;7.90;;
609;SDS011;292;48.800;9.216;2024-01-15T06:32:39;23.27;;;7.63;;
609;SDS011;292;48.800;9.216;2024-01-15T06:35:07;18.58;;;7.10;;
609;SDS011;292;48.800;9.216;2024-01-15T06:37:35;23.02;;;7.00;;
609;SDS011;292;48.800;9.216;2024-01-15T06:40:05;30.80;;;7.45;;
609;SDS011;292;48.800;9.216;2024-01-15T06:42:33;35.72;;;8.13;;
609;SDS011;292;48.800;9.216;2024-01-15T06:45:02;23.90;;;6.45;;
609;SDS011;292;48.800;9.216;2024-01-15T06:47:30;19.55;;;6.70;;
609;SDS011;292;48.800;9.216;2024-01-15T06:49:57;16.02;;;5.80;;
609;SDS011;292;48.800;9.216;2024-01-15T06:52:24;21.75;;;6.75;;
609;SDS011;292;48.800;9.216;2024-01-15T06:54:51;18.10;;;7.13;;
609;SDS011;292;48.800;9.216;2024-01-15T06:57:20;23.17;;;6.63;;
609;SDS011;292;48.800;9.216;2024-01-15T06:59:47;21.73;;;6.65;;
609;SDS011;292;48.800;9.216;2024-01-15T07:02:14;24.55;;;7.65;;
609;SDS011;292;48.800;9.216;2024-01-15T07:04:41;23.08;;;7.30;;
609;SDS011;292;48.800;9.216;2024-01-15T07:07:08;22.23;;;6.88;;
609;SDS011;292;48.800;9.216;2024-01-15T07:09:35;17.20;;;6.03;;
609;SDS011;292;48.800;9.216;2024-01-15T07:12:03;21.52;;;7.40;;
609;SDS011;292;48.800;9.216;2024-01-15T07:14:31;17.10;;;6.10;;
609;SDS011;292;48.800;9.216;2024-01-15T07:16:58;20.77;;;6.63;;
609;SDS011;292;48.800;9.216;2024-01-15T07:19:25;19.48;;;6.65;;
609;SDS011;292;48.800;9.216;2024-01-15T07:21:54;13.65;;;5.50;;
609;SDS011;292;48.800;9.216;2024-01-15T07:24:22;17.95;;;6.25;;
609;SDS011;292;48.800;9.216;2024-01-15T07:26:49;18.02;;;6.63;;
609;SDS011;292;48.800;9.216;2024-01-15T07:29:16;19.17;;;5.63;;
609;SDS011;292;48.800;9.216;2024-01-15T07:31:49;21.92;;;7.40;;
609;SDS011;292;48.800;9.216;2024-01-15T07:34:16;27.13;;;6.78;;
609;SDS011;292;48.800;9.216;2024-01-15T07:36:43;22.10;;;6.28;;
609;SDS011;292;48.800;9.216;2024-01-15T07:39:11;19.73;;;5.75;;
609;SDS011;292;48.800;9.216;2024-01-15T07:41:38;18.25;;;6.80;;
609;SDS011;292;48.800;9.216;2024-01-15T07:44:05;32.65;;;9.63;;
609;SDS011;292;48.800;9.216;2024-01-15T07:46:32;18.85;;;6.03;;
609;SDS011;292;48.800;9.216;2024-01-15T07:49:01;22.83;;;6.20;;
609;SDS011;292;48.800;9.216;2024-01-15T07:51:28;21.45;;;6.05;;
609;SDS011;292;48.800;9.216;2024-01-15T07:53:55;17.02;;;5.65;;
609;SDS011;292;48.800;9.216;2024-01-15T07:56:23;14.77;;;5.72;;
609;SDS011;292;48.800;9.216;2024-01-15T07:58:52;14.10;;;4.93;;
609;SDS011;292;48.800;9.216;2024-01-15T08:01:19;20.23;;;6.43;;
609;SDS011;292;48.800;9.216;2024-01-15T08:03:46;17.50;;;5.93;;
609;SDS011;292;48.800;9.216;2024-01-15T08:06:15;18.90;;;6.65;;
609;SDS011;292;48.800;9.216;2024-01-15T08:08:42;19.83;;;5.38;;
609;SDS011;292;48.800;9.216;2024-01-15T08:11:09;22.73;;;7.15;;
609;SDS011;292;48.800;9.216;2024-01-15T08:13:36;18.65;;;6.10;;
609;SDS011;292;48.800;9.216;2024-01-15T08:16:03;14.20;;;5.20;;
609;SDS011;292;48.800;9.216;2024-01-15T08:18:31;18.67;;;6.20;;
609;SDS011;292;48.800;9.216;2024-01-15T08:20:58;17.52;;;5.90;;
609;SDS011;292;48.800;9.216;2024-01-15T08:23:27;24.55;;;7.38;;
609;SDS011;292;48.800;9.216;2024-01-15T08:25:56;17.77;;;5.35;;
609;SDS011;292;48.800;9.216;2024-01-15T08:28:23;16.40;;;6.30;;
609;SDS011;292;48.800;9.216;2024-01-15T08:30:50;22.13;;;6.05;;
609;SDS011;292;48.800;9.216;2024-01-15T08:33:17;18.77;;;6.43;;
609;SDS011;292;48.800;9.216;2024-01-15T08:35:44;25.73;;;6.88;;
609;SDS011;292;48.800;9.216;2024-01-15T08:38:12;18.30;;;6.43;;
609;SDS011;292;48.800;9.216;2024-01-15T08:40:40;20.33;;;6.28;;
609;SDS011;292;48.800;9.216;2024-01-15T08:43:07;13.73;;;5.57;;
609;SDS011;292;48.800;9.216;2024-01-15T08:45:34;18.52;;;5.93;;
609;SDS011;292;48.800;9.216;2024-01-15T08:48:01;24.10;;;7.00;;
609;SDS011;292;48.800;9.216;2024-01-15T08:50:29;13.25;;;5.65;;
609;SDS011;292;48.800;9.216;2024-01-15T08:52:57;13.70;;;5.10;;
609;SDS011;292;48.800;9.216;2024-01-15T08:55:24;15.98;;;5.93;;
609;SDS011;292;48.800;9.216;2024-01-15T08:57:52;14.73;;;6.05;;
609;SDS011;292;48.800;9.216;2024-01-15T09:00:19;15.77;;;4.82;;
609;SDS011;292;48.800;9.216;2024-01-15T09:02:48;14.57;;;4.53;;
609;SDS011;292;48.800;9.216;2024-01-15T09:05:15;13.65;;;5.03;;
609;SDS011;292;48.800;9.216;2024-01-15T09:07:42;16.20;;;5.30;;
609;SDS011;292;48.800;9.216;2024-01-15T09:10:11;14.40;;;4.43;;
609;SDS011;292;48.800;9.216;2024-01-15T09:12:38;19.63;;;4.95;;
609;SDS011;292;48.800;9.216;2024-01-15T09:15:07;13.43;;;4.32;;
609;SDS011;292;48.800;9.216;2024-01-15T09:17:34;10.40;;;4.57;;
609;SDS011;292;48.800;9.216;2024-01-15T09:20:01;12.80;;;4.43;;
609;SDS011;292;48.800;9.216;2024-01-15T09:22:29;14.02;;;4.65;;
609;SDS011;292;48.800;9.216;2024-01-15T09:24:56;13.40;;;4.40;;
609;SDS011;292;48.800;9.216;2024-01-15T09:27:23;14.18;;;4.72;;
609;SDS011;292;48.800;9.216;2024-01-15T09:29:51;8.93;;;3.72;;
609;SDS011;292;48.800;9.216;2024-01-15T09:32:20;11.35;;;4.30;;
609;SDS011;292;48.800;9.216;2024-01-15T09:34:47;13.70;;;4.72;;
609;SDS011;292;48.800;9.216;2024-01-15T09:37:14;13.27;;;4.65;;
609;SDS011;292;48.800;9.216;2024-01-15T09:39:41;11.20;;;4.38;;
609;SDS011;292;48.800;9.216;2024-01-15T09:42:08;12.57;;;4.70;;
609;SDS011;292;48.800;9.216;2024-01-15T09:44:36;14.20;;;4.25;;
609;SDS011;292;48.800;9.216;2024-01-15T09:47:04;10.55;;;4.63;;
609;SDS011;292;48.800;9.216;2024-01-15T09:49:33;11.35;;;4.70;;
609;SDS011;292;48.800;9.216;2024-01-15T09:52:00;19.02;;;4.15;;
609;SDS011;292;48.800;9.216;2024-01-15T09:54:29;20.63;;;4.30;;
609;SDS011;292;48.800;9.216;2024-01-15T09:56:56;12.75;;;4.13;;
609;SDS011;292;48.800;9.216;2024-01-15T09:59:23;18.25;;;4.80;;
609;SDS011;292;48.800;9.216;2024-01-15T10:01:53;11.40;;;4.00;;
609;SDS011;292;48.800;9.216;2024-01-15T10:04:23;12.80;;;4.00;;
609;SDS011;292;48.800;9.216;2024-01-15T10:06:53;10.52;;;4.20;;
609;SDS011;292;48.800;9.216;2024-01-15T10:09:22;13.65;;;4.75;;
609;SDS011;292;48.800;9.216;2024-01-15T10:11:49;14.32;;;4.38;;
609;SDS011;292;48.800;9.216;2024-01-15T10:14:16;21.20;;;5.10;;
609;SDS011;292;48.800;9.216;2024-01-15T10:16:43;24.23;;;7.30;;
609;SDS011;292;48.800;9.216;2024-01-15T10:19:10;18.52;;;4.90;;
609;SDS011;292;48.800;9.216;2024-01-15T10:21:37;25.05;;;5.30;;
609;SDS011;292;48.800;9.216;2024-01-15T10:24:06;20.67;;;7.13;;
609;SDS011;292;48.800;9.216;2024-01-15T10:26:33;41.70;;;5.72;;
609;SDS011;292;48.800;9.216;2024-01-15T10:29:00;26.42;;;6.10;;
609;SDS011;292;48.800;9.216;2024-01-15T10:31:28;19.13;;;5.82;;
609;SDS011;292;48.800;9.216;2024-01-15T10:33:55;25.42;;;6.40;;
609;SDS011;292;48.800;9.216;2024-01-15T10:36:39;17.50;;;5.57;;
609;SDS011;292;48.800;9.216;2024-01-15T10:39:09;8.50;;;3.80;;
609;SDS011;292;48.800;9.216;2024-01-15T10:41:37;9.10;;;3.50;;
609;SDS011;292;48.800;9.216;2024-01-15T10:44:04;12.07;;;4.47;;
609;SDS011;292;48.800;9.216;2024-01-15T10:46:32;21.77;;;5.30;;
609;SDS011;292;48.800;9.216;2024-01-15T10:49:00;26.83;;;5.35;;
609;SDS011;292;48.800;9.216;2024-01-15T10:51:27;8.80;;;3.63;;
609;SDS011;292;48.800;9.216;2024-01-15T10:53:55;10.43;;;3.03;;
609;SDS011;292;48.800;9.216;2024-01-15T10:56:25;16.40;;;4.57;;
609;SDS011;292;48.800;9.216;2024-01-15T10:58:53;13.02;;;4.40;;
609;SDS011;292;48.800;9.216;2024-01-15T11:01:21;12.13;;;4.75;;
609;SDS011;292;48.800;9.216;2024-01-15T11:03:49;13.82;;;3.78;;
609;SDS011;292;48.800;9.216;2024-01-15T11:06:16;10.65;;;3.92;;
609;SDS011;292;48.800;9.216;2024-01-15T11:08:46;13.00;;;3.55;;
609;SDS011;292;48.800;9.216;2024-01-15T11:11:16;10.48;;;4.38;;
609;SDS011;292;48.800;9.216;2024-01-15T11:13:46;16.00;;;5.35;;
609;SDS011;292;48.800;9.216;2024-01-15T11:16:15;17.23;;;4.95;;
609;SDS011;292;48.800;9.216;2024-01-15T11:18:45;20.45;;;4.45;;
609;SDS011;292;48.800;9.216;2024-01-15T11:21:28;13.13;;;4.65;;
609;SDS011;292;48.800;9.216;2024-01-15T11:23:56;19.38;;;6.28;;
609;SDS011;292;48.800;9.216;2024-01-15T11:26:34;10.77;;;3.53;;
609;SDS011;292;48.800;9.216;2024-01-15T11:29:05;15.40;;;4.70;;
609;SDS011;292;48.800;9.216;2024-01-15T11:37:19;19.45;;;5.50;;
609;SDS011;292;48.800;9.216;2024-01-15T11:39:49;15.07;;;4.43;;
609;SDS011;292;48.800;9.216;2024-01-15T11:42:19;11.32;;;4.43;;
609;SDS011;292;48.800;9.216;2024-01-15T11:44:50;10.85;;;4.07;;
609;SDS011;292;48.800;9.216;2024-01-15T11:47:23;10.90;;;3.72;;
609;SDS011;292;48.800;9.216;2024-01-15T11:50:24;14.10;;;4.95;;
609;SDS011;292;48.800;9.216;2024-01-15T11:52:55;13.10;;;4.90;;
609;SDS011;292;48.800;9.216;2024-01-15T11:55:27;13.55;;;4.93;;
609;SDS011;292;48.800;9.216;2024-01-15T11:57:55;14.32;;;5.45;;
609;SDS011;292;48.800;9.216;2024-01-15T12:00:30;12.18;;;3.85;;
609;SDS011;292;48.800;9.216;2024-01-15T12:02:59;13.75;;;4.80;;
609;SDS011;292;48.800;9.216;2024-01-15T12:05:27;15.27;;;5.25;;
609;SDS011;292;48.800;9.216;2024-01-15T12:07:55;10.07;;;4.22;;
609;SDS011;292;48.800;9.216;2024-01-15T12:10:23;10.90;;;4.65;;
609;SDS011;292;48.800;9.216;2024-01-15T12:12:56;15.80;;;6.07;;
609;SDS011;292;48.800;9.216;2024-01-15T12:15:25;12.35;;;4.28;;
609;SDS011;292;48.800;9.216;2024-01-15T12:17:55;13.07;;;4.70;;
609;SDS011;292;48.800;9.216;2024-01-15T12:20:24;7.50;;;2.90;;
609;SDS011;292;48.800;9.216;2024-01-15T12:22:51;10.38;;;4.20;;
609;SDS011;292;48.800;9.216;2024-01-15T12:25:20;13.10;;;4.63;;
609;SDS011;292;48.800;9.216;2024-01-15T12:27:48;10.95;;;3.95;;
609;SDS011;292;48.800;9.216;2024-01-15T12:30:15;10.38;;;4.20;;
609;SDS011;292;48.800;9.216;2024-01-15T12:32:45;14.05;;;4.18;;
609;SDS011;292;48.800;9.216;2024-01-15T12:35:13;25.60;;;4.70;;
609;SDS011;292;48.800;9.216;2024-01-15T12:37:42;15.07;;;5.45;;
609;SDS011;292;48.800;9.216;2024-01-15T12:40:11;14.80;;;4.95;;
609;SDS011;292;48.800;9.216;2024-01-15T12:42:39;12.35;;;4.93;;
609;SDS011;292;48.800;9.216;2024-01-15T12:45:08;11.95;;;4.90;;
609;SDS011;292;48.800;9.216;2024-01-15T12:47:36;11.95;;;4.10;;
609;SDS011;292;48.800;9.216;2024-01-15T12:50:07;14.32;;;4.90;;
609;SDS011;292;48.800;9.216;2024-01-15T12:58:20;22.30;;;5.78;;
609;SDS011;292;48.800;9.216;2024-01-15T13:00:47;19.50;;;5.68;;
609;SDS011;292;48.800;9.216;2024-01-15T13:03:14;11.02;;;4.53;;
609;SDS011;292;48.800;9.216;2024-01-15T13:05:43;11.00;;;4.93;;
609;SDS011;292;48.800;9.216;2024-01-15T13:08:11;14.82;;;5.47;;
609;SDS011;292;48.800;9.216;2024-01-15T13:10:38;13.75;;;4.68;;
609;SDS011;292;48.800;9.216;2024-01-15T13:13:07;14.32;;;5.00;;
609;SDS011;292;48.800;9.216;2024-01-15T13:15:34;9.05;;;3.88;;
609;SDS011;292;48.800;9.216;2024-01-15T13:18:02;13.20;;;5.18;;
609;SDS011;292;48.800;9.216;2024-01-15T13:20:29;12.48;;;5.30;;
609;SDS011;292;48.800;9.216;2024-01-15T13:22:57;15.77;;;6.00;;
609;SDS011;292;48.800;9.216;2024-01-15T13:25:24;18.80;;;7.45;;
609;SDS011;292;48.800;9.216;2024-01-15T13:27:51;14.30;;;6.63;;
609;SDS011;292;48.800;9.216;2024-01-15T13:30:18;13.20;;;6.10;;
609;SDS011;292;48.800;9.216;2024-01-15T13:32:45;17.38;;;7.97;;
609;SDS011;292;48.800;9.216;2024-01-15T13:35:13;43.90;;;18.98;;
609;SDS011;292;48.800;9.216;2024-01-15T13:37:40;22.90;;;9.13;;
609;SDS011;292;48.800;9.216;2024-01-15T13:40:09;14.45;;;5.22;;
609;SDS011;292;48.800;9.216;2024-01-15T13:42:41;14.30;;;4.88;;
609;SDS011;292;48.800;9.216;2024-01-15T13:45:08;10.93;;;4.35;;
609;SDS011;292;48.800;9.216;2024-01-15T13:47:38;12.45;;;3.97;;
609;SDS011;292;48.800;9.216;2024-01-15T13:50:06;11.10;;;4.07;;
609;SDS011;292;48.800;9.216;2024-01-15T13:52:34;11.05;;;4.50;;
609;SDS011;292;48.800;9.216;2024-01-15T13:55:01;8.70;;;3.70;;
609;SDS011;292;48.800;9.216;2024-01-15T13:57:29;8.73;;;3.78;;
609;SDS011;292;48.800;9.216;2024-01-15T13:59:56;14.10;;;3.33;;
609;SDS011;292;48.800;9.216;2024-01-15T14:02:23;8.27;;;3.42;;
609;SDS011;292;48.800;9.216;2024-01-15T14:04:50;8.50;;;3.20;;
609;SDS011;292;48.800;9.216;2024-01-15T14:07:17;8.68;;;3.63;;
609;SDS011;292;48.800;9.216;2024-01-15T14:09:44;9.00;;;3.70;;
609;SDS011;292;48.800;9.216;2024-01-15T14:12:11;8.25;;;3.80;;
609;SDS011;292;48.800;9.216;2024-01-15T14:14:40;18.80;;;6.65;;
609;SDS011;292;48.800;9.216;2024-01-15T14:17:07;10.32;;;4.47;;
609;SDS011;292;48.800;9.216;2024-01-15T14:19:34;12.93;;;4.90;;
609;SDS011;292;48.800;9.216;2024-01-15T14:22:01;13.13;;;5.20;;
609;SDS011;292;48.800;9.216;2024-01-15T14:24:28;14.68;;;4.57;;
609;SDS011;292;48.800;9.216;2024-01-15T14:26:55;18.70;;;3.88;;
609;SDS011;292;48.800;9.216;2024-01-15T14:29:22;15.25;;;4.32;;
609;SDS011;292;48.800;9.216;2024-01-15T14:31:52;13.30;;;3.85;;
609;SDS011;292;48.800;9.216;2024-01-15T14:34:19;16.42;;;4.05;;
609;SDS011;292;48.800;9.216;2024-01-15T14:36:48;12.95;;;3.95;;
609;SDS011;292;48.800;9.216;2024-01-15T14:39:18;10.10;;;3.42;;
609;SDS011;292;48.800;9.216;2024-01-15T14:41:45;10.45;;;4.10;;
609;SDS011;292;48.800;9.216;2024-01-15T14:44:12;10.63;;;4.90;;
609;SDS011;292;48.800;9.216;2024-01-15T14:46:40;9.88;;;3.92;;
609;SDS011;292;48.800;9.216;2024-01-15T14:49:08;12.45;;;4.97;;
609;SDS011;292;48.800;9.216;2024-01-15T14:51:35;10.40;;;4.72;;
609;SDS011;292;48.800;9.216;2024-01-15T14:54:02;19.80;;;5.53;;
609;SDS011;292;48.800;9.216;2024-01-15T14:56:29;23.13;;;7.28;;
609;SDS011;292;48.800;9.216;2024-01-15T14:58:58;42.50;;;6.53;;
609;SDS011;292;48.800;9.216;2024-01-15T15:01:25;23.05;;;6.57;;
609;SDS011;292;48.800;9.216;2024-01-15T15:03:51;15.90;;;5.70;;
609;SDS011;292;48.800;9.216;2024-01-15T15:06:20;22.65;;;6.65;;
609;SDS011;292;48.800;9.216;2024-01-15T15:08:52;31.00;;;8.85;;
609;SDS011;292;48.800;9.216;2024-01-15T15:11:20;21.38;;;7.63;;
609;SDS011;292;48.800;9.216;2024-01-15T15:13:48;37.35;;;8.52;;
609;SDS011;292;48.800;9.216;2024-01-15T15:16:15;40.63;;;8.73;;
609;SDS011;292;48.800;9.216;2024-01-15T15:18:43;37.50;;;7.90;;
609;SDS011;292;48.800;9.216;2024-01-15T15:21:11;21.50;;;6.40;;
609;SDS011;292;48.800;9.216;2024-01-15T15:23:39;48.03;;;9.05;;
609;SDS011;292;48.800;9.216;2024-01-15T15:26:06;24.08;;;7.05;;
609;SDS011;292;48.800;9.216;2024-01-15T15:28:34;22.98;;;8.57;;
609;SDS011;292;48.800;9.216;2024-01-15T15:31:01;13.38;;;6.35;;
609;SDS011;292;48.800;9.216;2024-01-15T15:33:28;16.55;;;6.28;;
609;SDS011;292;48.800;9.216;2024-01-15T15:35:55;14.63;;;6.30;;
609;SDS011;292;48.800;9.216;2024-01-15T15:38:24;13.93;;;6.30;;
609;SDS011;292;48.800;9.216;2024-01-15T15:40:53;15.70;;;5.97;;
609;SDS011;292;48.800;9.216;2024-01-15T15:43:21;39.13;;;8.63;;
609;SDS011;292;48.800;9.216;2024-01-15T15:45:48;33.95;;;7.88;;